Time;durP1;ratioP1;P1;durP2;ratioP2;P2;SDS_P1;SDS_P2;PMS_P1;PMS_P2;Temp;Humidity;BMP_temperature;BMP_pressure;BME280_temperature;BME280_humidity;BME280_pressure;Samples;Min_cycle;Max_cycle;Signal;HPM_P1;HPM_P2
2023/11/25 00:01:00;;;;;;;2.40;2.20;;;4.20;92.90;;;;;;5015307;28;20018;-92
2023/11/25 00:03:26;;;;;;;2.83;2.08;;;4.10;92.20;;;;;;5004387;28;20045;-92
2023/11/25 00:05:52;;;;;;;2.70;1.73;;;4.10;92.10;;;;;;5004225;28;20033;-92
2023/11/25 00:08:19;;;;;;;2.15;1.67;;;4.10;92.90;;;;;;5004597;28;20142;-91
2023/11/25 00:10:45;;;;;;;2.85;1.95;;;4.10;93.20;;;;;;5014329;28;20082;-92
2023/11/25 00:13:11;;;;;;;6.68;2.03;;;4.00;93.60;;;;;;5024479;28;20034;-91
2023/11/25 00:15:37;;;;;;;4.80;2.90;;;4.00;93.40;;;;;;5021268;28;20022;-91
2023/11/25 00:18:03;;;;;;;4.07;2.15;;;3.90;93.60;;;;;;5004742;28;20110;-91
2023/11/25 00:20:29;;;;;;;3.30;1.48;;;3.80;94.00;;;;;;5021825;28;20038;-91
2023/11/25 00:22:55;;;;;;;3.60;2.15;;;3.80;94.40;;;;;;5004434;28;20030;-91
2023/11/25 00:25:24;;;;;;;2.28;1.20;;;3.80;94.90;;;;;;5014033;28;20045;-91
2023/11/25 00:27:52;;;;;;;3.22;1.52;;;3.80;94.80;;;;;;5002915;28;20092;-93
2023/11/25 00:30:18;;;;;;;3.50;1.65;;;3.80;95.60;;;;;;5021528;28;20089;-91
2023/11/25 00:32:44;;;;;;;2.78;2.03;;;3.80;95.70;;;;;;5003318;28;20054;-92
2023/11/25 00:35:10;;;;;;;6.85;1.83;;;3.80;96.40;;;;;;5002381;28;20030;-91
2023/11/25 00:37:36;;;;;;;3.17;1.58;;;3.80;96.20;;;;;;5002203;28;20097;-92
2023/11/25 00:40:16;;;;;;;1.73;1.40;;;3.80;96.30;;;;;;5008967;28;20028;-92
2023/11/25 00:42:42;;;;;;;2.90;1.67;;;3.90;95.40;;;;;;5002550;28;20046;-91
2023/11/25 00:45:14;;;;;;;3.03;1.10;;;3.90;94.80;;;;;;4996188;28;20113;-91
2023/11/25 00:47:40;;;;;;;4.22;1.60;;;3.80;95.10;;;;;;5022304;28;20026;-92
2023/11/25 00:50:08;;;;;;;2.33;1.98;;;3.80;94.60;;;;;;5021768;28;20022;-93
2023/11/25 00:52:34;;;;;;;3.30;1.52;;;3.70;95.40;;;;;;5021730;28;20030;-91
2023/11/25 00:55:00;;;;;;;2.05;1.48;;;3.70;95.70;;;;;;5011959;28;20038;-92
2023/11/25 00:57:26;;;;;;;2.63;1.65;;;3.60;96.20;;;;;;5001293;28;20026;-92
2023/11/25 00:59:52;;;;;;;4.22;1.95;;;3.50;96.90;;;;;;5017967;28;20029;-91
2023/11/25 01:02:19;;;;;;;2.15;1.33;;;3.50;97.30;;;;;;5024763;28;20018;-93
2023/11/25 01:04:44;;;;;;;2.60;1.73;;;3.40;96.30;;;;;;5023034;28;20101;-93
2023/11/25 01:07:10;;;;;;;2.50;2.00;;;3.40;96.80;;;;;;4994477;28;20090;-91
2023/11/25 01:09:36;;;;;;;1.80;0.90;;;3.40;97.50;;;;;;5019079;28;20024;-92
2023/11/25 01:12:02;;;;;;;2.42;1.48;;;3.30;97.70;;;;;;5001197;28;20022;-91
2023/11/25 01:14:31;;;;;;;3.63;1.42;;;3.30;98.20;;;;;;5003795;28;20634;-91
2023/11/25 01:16:56;;;;;;;1.73;1.60;;;3.30;98.80;;;;;;5008066;28;20026;-91
2023/11/25 01:19:23;;;;;;;3.75;1.58;;;3.20;99.20;;;;;;5003667;28;20037;-92
2023/11/25 01:21:48;;;;;;;1.80;1.70;;;3.20;99.80;;;;;;5020772;28;20377;-92
2023/11/25 01:24:14;;;;;;;2.60;2.40;;;3.10;99.90;;;;;;4999735;28;20023;-92
2023/11/25 01:26:40;;;;;;;3.95;1.35;;;3.10;99.90;;;;;;5007126;28;20028;-92
2023/11/25 01:29:06;;;;;;;3.97;1.65;;;3.10;99.90;;;;;;5002652;28;20034;-91
2023/11/25 01:31:32;;;;;;;2.97;1.20;;;3.00;99.90;;;;;;5000851;28;20054;-92
2023/11/25 01:33:58;;;;;;;2.38;1.48;;;3.00;99.90;;;;;;5001924;28;20417;-91
2023/11/25 01:36:26;;;;;;;1.88;1.55;;;3.00;99.90;;;;;;5002230;28;20076;-93
2023/11/25 01:38:52;;;;;;;3.47;1.25;;;2.90;99.90;;;;;;5007130;28;20014;-92
2023/11/25 01:41:17;;;;;;;1.73;1.63;;;2.90;99.90;;;;;;5019038;28;20060;-93
2023/11/25 01:43:43;;;;;;;2.88;1.40;;;2.80;99.90;;;;;;5010277;28;20031;-93
2023/11/25 01:46:10;;;;;;;2.53;1.85;;;2.70;99.90;;;;;;5008837;28;20026;-92
2023/11/25 01:48:37;;;;;;;4.32;1.90;;;2.70;99.90;;;;;;5021594;28;20022;-91
2023/11/25 01:51:03;;;;;;;3.55;1.67;;;2.70;99.90;;;;;;5012915;28;20109;-92
2023/11/25 01:53:29;;;;;;;1.63;1.52;;;2.70;99.90;;;;;;5016676;28;20033;-92
2023/11/25 01:55:58;;;;;;;3.28;3.00;;;2.70;99.90;;;;;;5021746;28;20511;-93
2023/11/25 01:58:26;;;;;;;5.95;3.28;;;2.70;99.90;;;;;;5004825;28;20397;-92
2023/11/25 02:00:52;;;;;;;3.28;2.03;;;2.60;99.90;;;;;;5016222;28;20022;-91
2023/11/25 02:03:18;;;;;;;3.15;1.20;;;2.60;99.90;;;;;;5017791;28;20026;-93
2023/11/25 02:05:45;;;;;;;2.72;1.55;;;2.60;99.90;;;;;;5002789;28;20053;-91
2023/11/25 02:08:11;;;;;;;3.85;1.48;;;2.50;99.90;;;;;;5015512;28;20029;-92
2023/11/25 02:10:40;;;;;;;2.53;1.42;;;2.50;99.90;;;;;;5008752;28;20027;-92
2023/11/25 02:13:09;;;;;;;2.05;1.77;;;2.50;99.90;;;;;;5001022;28;20040;-91
2023/11/25 02:15:42;;;;;;;5.38;2.42;;;2.40;99.90;;;;;;5019648;28;20022;-92
2023/11/25 02:18:07;;;;;;;7.22;2.25;;;2.30;99.90;;;;;;5019933;28;20026;-92
2023/11/25 02:20:37;;;;;;;5.15;1.40;;;2.30;99.90;;;;;;5008798;28;20023;-91
2023/11/25 02:23:04;;;;;;;5.40;2.35;;;2.30;99.90;;;;;;4999646;28;20023;-92
2023/11/25 02:25:30;;;;;;;4.28;2.22;;;2.20;99.90;;;;;;5001126;28;20039;-92
2023/11/25 02:27:56;;;;;;;2.95;1.65;;;2.20;99.90;;;;;;5001018;28;20053;-92
2023/11/25 02:30:26;;;;;;;5.15;1.77;;;2.20;99.90;;;;;;5001158;28;20465;-92
2023/11/25 02:32:54;;;;;;;5.45;1.95;;;2.20;99.90;;;;;;5013954;28;20047;-92
2023/11/25 02:35:23;;;;;;;3.53;1.58;;;2.30;99.90;;;;;;5017053;28;20022;-92
2023/11/25 02:37:49;;;;;;;3.83;2.08;;;2.30;99.90;;;;;;5023698;28;20061;-92
2023/11/25 02:40:18;;;;;;;2.75;1.45;;;2.30;99.90;;;;;;5014843;28;20042;-91
2023/11/25 02:42:48;;;;;;;5.65;1.80;;;2.30;99.90;;;;;;5013034;28;20430;-92
2023/11/25 02:45:18;;;;;;;3.13;1.75;;;2.20;99.90;;;;;;5020604;28;20029;-92
2023/11/25 02:47:45;;;;;;;3.50;2.03;;;2.30;99.90;;;;;;5015503;28;20029;-92
2023/11/25 02:50:14;;;;;;;2.47;1.70;;;2.20;99.90;;;;;;4995762;28;20037;-92
2023/11/25 02:52:41;;;;;;;2.13;1.55;;;2.20;99.90;;;;;;5015847;28;20026;-92
2023/11/25 02:55:10;;;;;;;6.78;1.98;;;2.20;99.90;;;;;;5010482;28;20030;-92
2023/11/25 02:57:45;;;;;;;2.22;2.00;;;2.20;99.90;;;;;;5011464;28;20021;-92
2023/11/25 03:02:53;;;;;;;2.85;2.60;;;2.00;99.90;;;;;;5019724;28;20030;-92
2023/11/25 03:05:22;;;;;;;2.33;1.55;;;1.90;99.90;;;;;;5018668;28;20042;-91
2023/11/25 03:07:50;;;;;;;3.88;2.13;;;1.90;99.90;;;;;;5018927;28;20030;-91
2023/11/25 03:10:16;;;;;;;4.63;2.10;;;1.80;99.90;;;;;;5018258;28;20026;-91
2023/11/25 03:12:44;;;;;;;4.20;2.55;;;1.80;99.90;;;;;;5018494;28;20032;-92
2023/11/25 03:15:11;;;;;;;3.15;1.38;;;1.70;99.90;;;;;;5019864;28;20026;-92
2023/11/25 03:17:38;;;;;;;3.58;1.70;;;1.70;99.90;;;;;;5000091;28;20397;-92
2023/11/25 03:20:06;;;;;;;4.57;1.92;;;1.70;99.90;;;;;;4997206;28;20036;-91
2023/11/25 03:22:31;;;;;;;4.40;2.08;;;1.70;99.90;;;;;;5008241;28;20589;-91
2023/11/25 03:24:57;;;;;;;5.03;2.17;;;1.70;99.90;;;;;;5026597;28;20030;-94
2023/11/25 03:27:23;;;;;;;4.13;2.97;;;1.60;99.90;;;;;;5026548;28;20282;-91
2023/11/25 03:29:48;;;;;;;3.78;1.80;;;1.70;99.90;;;;;;5022285;28;20113;-92
2023/11/25 03:32:14;;;;;;;5.07;2.13;;;1.60;99.90;;;;;;5022784;28;20440;-91
2023/11/25 03:34:41;;;;;;;8.27;3.47;;;1.60;99.90;;;;;;5025986;28;20164;-91
2023/11/25 03:37:08;;;;;;;6.90;2.42;;;1.60;99.90;;;;;;5025940;28;20014;-92
2023/11/25 03:39:35;;;;;;;3.75;2.03;;;1.60;99.90;;;;;;5024345;28;20036;-92
2023/11/25 03:42:02;;;;;;;4.47;1.85;;;1.60;99.90;;;;;;5005683;28;20030;-92
2023/11/25 03:44:29;;;;;;;4.35;2.33;;;1.50;99.90;;;;;;5007154;28;20029;-92
2023/11/25 03:46:58;;;;;;;2.88;1.60;;;1.50;99.90;;;;;;5020233;28;20030;-93
2023/11/25 03:49:24;;;;;;;3.58;1.70;;;1.50;99.90;;;;;;5013072;28;20064;-92
2023/11/25 03:51:52;;;;;;;2.97;1.80;;;1.50;99.90;;;;;;5017459;28;20036;-91
2023/11/25 03:54:18;;;;;;;2.47;2.28;;;1.50;99.90;;;;;;5020270;28;20022;-92
2023/11/25 03:56:44;;;;;;;2.97;2.33;;;1.50;99.90;;;;;;5008000;28;20083;-92
2023/11/25 03:59:10;;;;;;;4.53;2.08;;;1.50;99.90;;;;;;5009031;28;20025;-92
2023/11/25 04:01:36;;;;;;;5.75;3.17;;;1.50;99.90;;;;;;5022412;28;20025;-92
2023/11/25 04:04:03;;;;;;;2.85;1.95;;;1.50;99.90;;;;;;5016892;28;20041;-91
2023/11/25 04:06:32;;;;;;;3.15;1.98;;;1.40;99.90;;;;;;4995269;28;20113;-91
2023/11/25 04:09:00;;;;;;;3.67;1.67;;;1.40;99.90;;;;;;5008613;28;20640;-91
2023/11/25 04:11:26;;;;;;;3.40;2.28;;;1.40;99.90;;;;;;5004960;28;20050;-92
2023/11/25 04:13:56;;;;;;;2.63;2.15;;;1.40;99.90;;;;;;5019636;28;20033;-91
2023/11/25 04:16:22;;;;;;;2.72;2.45;;;1.40;99.90;;;;;;5023873;28;20097;-92
2023/11/25 04:18:48;;;;;;;3.78;1.60;;;1.40;99.90;;;;;;5025055;28;20089;-92
2023/11/25 04:21:14;;;;;;;4.55;1.88;;;1.40;99.90;;;;;;5024586;28;20062;-94
2023/11/25 04:23:39;;;;;;;2.85;1.73;;;1.40;99.90;;;;;;5005956;28;20049;-93
2023/11/25 04:26:05;;;;;;;4.70;2.38;;;1.40;99.90;;;;;;5022918;28;20030;-92
2023/11/25 04:28:33;;;;;;;5.15;2.20;;;1.40;99.90;;;;;;5007597;28;20030;-92
2023/11/25 04:30:59;;;;;;;3.97;1.92;;;1.40;99.90;;;;;;5014986;28;20109;-91
2023/11/25 04:33:25;;;;;;;3.15;2.38;;;1.30;99.90;;;;;;5003392;28;20033;-93
2023/11/25 04:35:53;;;;;;;3.40;3.10;;;1.30;99.90;;;;;;5000919;28;20450;-93
2023/11/25 04:38:19;;;;;;;2.78;1.65;;;1.20;99.90;;;;;;5002569;28;20076;-93
2023/11/25 04:40:47;;;;;;;3.42;2.47;;;1.20;99.90;;;;;;4998358;28;20018;-92
2023/11/25 04:43:14;;;;;;;3.78;1.65;;;1.10;99.90;;;;;;5002179;28;20093;-92
2023/11/25 04:45:39;;;;;;;5.15;2.38;;;1.10;99.90;;;;;;5020815;28;20060;-92
2023/11/25 04:48:05;;;;;;;3.72;2.20;;;1.00;99.90;;;;;;5021024;28;20029;-92
2023/11/25 04:50:31;;;;;;;2.78;1.75;;;1.00;99.90;;;;;;5020572;28;20038;-92
2023/11/25 04:52:59;;;;;;;4.40;2.40;;;1.00;99.90;;;;;;5020580;28;20206;-92
2023/11/25 04:55:27;;;;;;;2.28;1.63;;;1.00;99.90;;;;;;5013901;28;20062;-92
2023/11/25 04:57:56;;;;;;;7.45;1.98;;;1.00;99.90;;;;;;5000949;28;20041;-93
2023/11/25 05:00:21;;;;;;;3.55;2.20;;;1.00;99.90;;;;;;4998644;28;20026;-92
2023/11/25 05:02:47;;;;;;;3.40;1.88;;;1.00;99.90;;;;;;5000163;28;20037;-92
2023/11/25 05:05:13;;;;;;;2.10;1.88;;;1.00;99.90;;;;;;5004171;28;20022;-93
2023/11/25 05:07:40;;;;;;;3.80;2.10;;;1.10;99.90;;;;;;5001544;28;20060;-92
2023/11/25 05:10:09;;;;;;;5.88;2.58;;;1.10;99.90;;;;;;4994796;28;20125;-93
2023/11/25 05:12:38;;;;;;;2.92;1.80;;;1.10;99.90;;;;;;5018590;28;20026;-92
2023/11/25 05:15:09;;;;;;;5.05;1.90;;;1.10;99.90;;;;;;4999173;28;20053;-91
2023/11/25 05:17:34;;;;;;;3.22;2.00;;;1.10;99.90;;;;;;5009259;28;20037;-92
2023/11/25 05:20:01;;;;;;;4.45;2.50;;;1.20;99.90;;;;;;5010578;28;20567;-92
2023/11/25 05:22:27;;;;;;;3.60;2.70;;;1.20;99.90;;;;;;5018979;28;20040;-91
2023/11/25 05:24:54;;;;;;;6.05;2.63;;;1.30;99.90;;;;;;4988736;28;20396;-90
2023/11/25 05:27:20;;;;;;;2.55;1.83;;;1.30;99.90;;;;;;4998343;28;20034;-93
2023/11/25 05:29:45;;;;;;;1.73;1.63;;;1.30;99.90;;;;;;5018650;28;20053;-92
2023/11/25 05:32:12;;;;;;;6.28;1.67;;;1.30;99.90;;;;;;5019217;28;20026;-92
2023/11/25 05:34:40;;;;;;;4.88;2.10;;;1.40;99.90;;;;;;5018439;28;20018;-92
2023/11/25 05:37:07;;;;;;;2.75;1.83;;;1.30;99.90;;;;;;5016346;28;20022;-91
2023/11/25 05:39:34;;;;;;;3.83;2.10;;;1.40;99.90;;;;;;5009914;28;20014;-91
2023/11/25 05:42:01;;;;;;;6.60;2.00;;;1.40;99.90;;;;;;5018519;28;20513;-91
2023/11/25 05:44:31;;;;;;;5.18;2.22;;;1.40;99.90;;;;;;5010793;28;20053;-93
2023/11/25 05:46:57;;;;;;;2.83;1.50;;;1.40;99.90;;;;;;5019906;28;20079;-92
2023/11/25 05:49:23;;;;;;;6.40;2.85;;;1.40;99.90;;;;;;5002096;28;20105;-93
2023/11/25 05:51:50;;;;;;;6.07;1.70;;;1.40;99.90;;;;;;4987996;28;20113;-92
2023/11/25 05:54:16;;;;;;;3.70;1.48;;;1.50;99.90;;;;;;5015250;28;20033;-92
2023/11/25 05:56:44;;;;;;;4.85;1.85;;;1.50;99.90;;;;;;5018127;28;20089;-91
2023/11/25 05:59:10;;;;;;;5.22;1.52;;;1.50;99.90;;;;;;5017966;28;20084;-91
2023/11/25 06:01:39;;;;;;;3.50;2.22;;;1.50;99.90;;;;;;5017381;28;20599;-92
2023/11/25 06:04:05;;;;;;;6.93;2.47;;;1.60;99.90;;;;;;5018343;28;20044;-92
2023/11/25 06:06:30;;;;;;;4.90;2.13;;;1.60;99.90;;;;;;5018438;28;20124;-92
2023/11/25 06:08:56;;;;;;;7.72;2.15;;;1.60;99.90;;;;;;5018498;28;20049;-92
2023/11/25 06:11:26;;;;;;;2.67;2.13;;;1.70;99.90;;;;;;5002984;28;20022;-92
2023/11/25 06:13:56;;;;;;;5.32;2.15;;;1.60;99.90;;;;;;5002134;28;20026;-91
2023/11/25 06:16:23;;;;;;;5.57;1.98;;;1.60;99.90;;;;;;5020224;28;20380;-92
2023/11/25 06:18:49;;;;;;;3.85;2.50;;;1.70;99.90;;;;;;5004661;28;20029;-92
2023/11/25 06:21:15;;;;;;;2.33;1.42;;;1.70;99.90;;;;;;5019466;28;20569;-91
2023/11/25 06:23:42;;;;;;;4.38;2.30;;;1.60;99.90;;;;;;5018638;28;20096;-92
2023/11/25 06:26:10;;;;;;;7.03;2.30;;;1.70;99.90;;;;;;5013706;28;20022;-92
2023/11/25 06:28:43;;;;;;;2.60;1.85;;;1.70;99.90;;;;;;5018820;28;20036;-92
2023/11/25 06:31:11;;;;;;;9.40;2.40;;;1.70;99.90;;;;;;5013599;28;20022;-91
2023/11/25 06:33:37;;;;;;;3.30;2.40;;;1.70;99.90;;;;;;5008906;28;20014;-91
2023/11/25 06:36:07;;;;;;;4.20;1.80;;;1.70;99.90;;;;;;5020573;28;20036;-92
2023/11/25 06:38:39;;;;;;;3.30;1.67;;;1.70;99.90;;;;;;5022312;28;20049;-92
2023/11/25 06:41:17;;;;;;;8.48;2.78;;;1.70;99.90;;;;;;5018399;28;20021;-93
2023/11/25 06:43:55;;;;;;;4.40;2.30;;;1.70;99.90;;;;;;5003821;28;20042;-93
2023/11/25 06:46:24;;;;;;;4.88;1.67;;;1.70;99.90;;;;;;5001713;28;20049;-94
2023/11/25 06:48:56;;;;;;;4.15;1.98;;;1.80;99.90;;;;;;5003209;28;20022;-93
2023/11/25 06:51:21;;;;;;;5.53;2.33;;;1.70;99.90;;;;;;5008947;28;20041;-94
2023/11/25 06:54:11;;;;;;;4.93;2.78;;;1.70;99.90;;;;;;5005188;28;20026;-92
2023/11/25 06:56:40;;;;;;;8.07;2.95;;;1.70;99.90;;;;;;5004248;28;20034;-92
2023/11/25 06:59:09;;;;;;;4.35;3.05;;;1.70;99.90;;;;;;5006791;28;20103;-91
2023/11/25 07:01:39;;;;;;;10.88;4.07;;;1.70;99.90;;;;;;5004102;28;20021;-93
2023/11/25 07:04:08;;;;;;;9.55;3.28;;;1.80;99.90;;;;;;5023385;28;20062;-90
2023/11/25 07:06:40;;;;;;;3.20;2.75;;;1.80;99.90;;;;;;5006660;28;20040;-92
2023/11/25 07:09:09;;;;;;;4.05;2.05;;;1.80;99.90;;;;;;5027022;28;20049;-94
2023/11/25 07:11:50;;;;;;;2.45;1.80;;;1.70;99.90;;;;;;5021324;28;20037;-94
2023/11/25 07:14:40;;;;;;;3.45;2.15;;;1.70;99.90;;;;;;5000540;28;20033;-93
2023/11/25 07:17:05;;;;;;;4.78;2.60;;;1.70;99.90;;;;;;5000528;28;20068;-94
2023/11/25 07:19:47;;;;;;;5.18;2.38;;;1.70;99.90;;;;;;5008282;28;20030;-94
2023/11/25 07:22:16;;;;;;;5.13;2.42;;;1.70;99.90;;;;;;5013794;28;20025;-93
2023/11/25 07:24:47;;;;;;;6.70;2.38;;;1.70;99.90;;;;;;4997918;28;20094;-92
2023/11/25 07:27:18;;;;;;;4.95;3.13;;;1.70;99.90;;;;;;5014237;28;20026;-94
2023/11/25 07:29:47;;;;;;;4.35;2.72;;;1.70;99.90;;;;;;5014451;28;20069;-93
2023/11/25 07:32:20;;;;;;;14.75;7.57;;;1.70;99.90;;;;;;5002834;28;20030;-95
2023/11/25 07:34:46;;;;;;;21.33;8.88;;;1.80;99.90;;;;;;5002123;28;20030;-95
2023/11/25 07:37:15;;;;;;;10.77;4.45;;;1.70;99.90;;;;;;5015219;28;20029;-94
2023/11/25 07:39:48;;;;;;;6.40;3.55;;;1.80;99.90;;;;;;5025210;28;20030;-94
2023/11/25 07:42:18;;;;;;;13.63;6.40;;;1.80;99.90;;;;;;5009072;28;20199;-96
2023/11/25 07:44:53;;;;;;;6.80;4.75;;;1.90;99.90;;;;;;5013359;28;20030;-94
2023/11/25 07:47:43;;;;;;;18.27;10.77;;;1.90;99.90;;;;;;5012954;28;20026;-96
2023/11/25 07:50:22;;;;;;;16.25;7.95;;;1.90;99.90;;;;;;5009713;28;20155;-96
2023/11/25 07:53:02;;;;;;;10.82;4.15;;;1.90;99.90;;;;;;5021983;28;20014;-93
2023/11/25 07:55:34;;;;;;;4.07;2.75;;;1.90;99.90;;;;;;5017671;28;20044;-92
2023/11/25 07:58:02;;;;;;;5.50;2.05;;;1.90;99.90;;;;;;5026390;28;20022;-96
2023/11/25 08:00:41;;;;;;;7.18;3.45;;;2.00;99.90;;;;;;5009833;28;20057;-93
2023/11/25 08:03:17;;;;;;;8.55;2.42;;;2.00;99.90;;;;;;5007959;28;20105;-93
2023/11/25 08:06:08;;;;;;;3.85;3.03;;;2.10;99.90;;;;;;5003395;28;20089;-95
2023/11/25 08:08:38;;;;;;;7.75;2.90;;;2.10;99.90;;;;;;5010842;22;20023;-91
2023/11/25 08:11:17;;;;;;;4.63;3.45;;;2.20;99.90;;;;;;5018656;28;20052;-90
2023/11/25 08:13:50;;;;;;;7.38;4.32;;;2.20;99.90;;;;;;5018316;28;20026;-92
2023/11/25 08:16:35;;;;;;;5.03;2.72;;;2.30;99.90;;;;;;5011098;28;20138;-91
2023/11/25 08:19:23;;;;;;;6.00;3.10;;;2.40;99.90;;;;;;5010511;28;20050;-93
2023/11/25 08:22:04;;;;;;;5.30;2.60;;;2.50;99.90;;;;;;5022959;28;20093;-92
2023/11/25 08:25:10;;;;;;;;;;;;;;;;;;;;;
2023/11/25 08:27:30;;;;;;;;;;;2.60;99.90;;;;;;5020755;28;20246;-93
2023/11/25 08:30:01;;;;;;;8.48;3.45;;;2.80;99.90;;;;;;5028954;28;19928;-92
2023/11/25 08:35:20;;;;;;;8.98;3.80;;;2.80;99.90;;;;;;5043531;28;20045;-93
2023/11/25 08:37:58;;;;;;;8.00;5.07;;;2.90;99.90;;;;;;5026221;28;20026;-94
2023/11/25 08:40:24;;;;;;;7.38;3.65;;;2.90;99.90;;;;;;5041784;28;20021;-93
2023/11/25 08:42:50;;;;;;;8.60;4.05;;;2.90;99.90;;;;;;5013018;28;20158;-94
2023/11/25 08:45:53;;;;;;;9.15;4.55;;;2.90;99.90;;;;;;5021131;28;20026;-92
2023/11/25 08:48:25;;;;;;;8.05;3.92;;;2.90;99.90;;;;;;5014620;28;20041;-92
2023/11/25 08:51:29;;;;;;;6.53;3.88;;;3.00;99.90;;;;;;5020740;23;20382;-94
2023/11/25 08:55:00;;;;;;;6.13;3.92;;;2.90;99.90;;;;;;5003510;28;20046;-94
2023/11/25 08:57:20;;;;;;;10.95;4.35;;;3.00;99.90;;;;;;5023445;28;20033;-94
2023/11/25 08:59:58;;;;;;;9.25;4.30;;;3.10;99.90;;;;;;5036242;28;20021;-93
2023/11/25 09:09:19;;;;;;;7.85;3.92;;;3.50;99.90;;;;;;5026938;28;20415;-92
2023/11/25 09:12:17;;;;;;;8.80;5.65;;;3.60;99.90;;;;;;5019521;28;20036;-91
2023/11/25 09:15:06;;;;;;;13.10;5.95;;;3.60;99.90;;;;;;5009199;28;20447;-92
2023/11/25 09:24:47;;;;;;;;;;;;;;;;;;;;;
2023/11/25 09:34:54;;;;;;;6.10;2.95;;;3.80;99.90;;;;;;5007052;28;20057;-92
2023/11/25 09:37:22;;;;;;;8.50;4.35;;;3.80;99.90;;;;;;5014873;28;20065;-92
2023/11/25 09:39:50;;;;;;;10.02;3.70;;;3.80;99.90;;;;;;5034690;28;20021;-93
2023/11/25 09:42:16;;;;;;;6.80;4.43;;;3.80;99.90;;;;;;5012948;28;20092;-94
2023/11/25 09:44:45;;;;;;;12.02;3.55;;;3.80;99.90;;;;;;5028014;28;20061;-95
2023/11/25 09:47:16;;;;;;;7.57;4.35;;;3.80;99.90;;;;;;5007298;28;20040;-92
2023/11/25 09:49:46;;;;;;;10.00;3.72;;;3.80;99.90;;;;;;5005929;28;20115;-91
2023/11/25 09:52:18;;;;;;;13.50;5.00;;;3.90;99.90;;;;;;5019118;28;20122;-92
2023/11/25 09:54:46;;;;;;;7.25;2.75;;;3.90;98.80;;;;;;5029738;28;20026;-92
2023/11/25 09:57:22;;;;;;;11.00;4.65;;;4.00;99.40;;;;;;5003278;28;20017;-91
2023/11/25 09:59:51;;;;;;;10.30;4.03;;;4.00;99.90;;;;;;5004438;28;20026;-93
2023/11/25 10:02:29;;;;;;;13.10;5.28;;;4.00;98.40;;;;;;5004895;28;20121;-92
2023/11/25 10:05:01;;;;;;;11.65;5.75;;;3.90;97.90;;;;;;5021532;28;20103;-91
2023/11/25 10:08:26;;;;;;;9.95;4.47;;;3.90;99.40;;;;;;5023821;28;20037;-92
2023/11/25 10:11:09;;;;;;;10.15;4.95;;;3.90;98.50;;;;;;5004186;28;20068;-92
2023/11/25 10:13:42;;;;;;;12.02;4.65;;;3.90;98.70;;;;;;5004702;28;20095;-93
2023/11/25 10:16:10;;;;;;;11.27;4.97;;;3.80;98.90;;;;;;5021251;28;20034;-91
2023/11/25 10:18:44;;;;;;;9.18;3.38;;;3.90;99.20;;;;;;5022404;28;20026;-91
2023/11/25 10:21:19;;;;;;;10.55;5.15;;;3.90;97.70;;;;;;5004369;28;20113;-92
2023/11/25 10:27:38;;;;;;;12.10;3.72;;;3.90;99.40;;;;;;5023497;28;20041;-92
2023/11/25 10:30:38;;;;;;;8.18;3.97;;;3.80;98.70;;;;;;5004936;28;20515;-92
2023/11/25 10:33:11;;;;;;;;;;;3.80;99.60;;;;;;5012446;28;20044;-91
2023/11/25 10:35:56;;;;;;;12.38;6.50;;;3.80;99.50;;;;;;5003023;28;19906;-91
2023/11/25 10:38:30;;;;;;;14.77;8.48;;;3.80;99.40;;;;;;5004484;28;20116;-92
2023/11/25 10:43:59;;;;;;;8.52;4.97;;;3.80;99.90;;;;;;4981509;28;20458;-91
2023/11/25 10:46:41;;;;;;;11.20;3.72;;;3.70;99.90;;;;;;5021461;28;20052;-89
2023/11/25 10:49:11;;;;;;;16.70;8.18;;;3.80;99.40;;;;;;5006130;28;20029;-89
2023/11/25 10:51:40;;;;;;;13.43;4.80;;;3.70;99.90;;;;;;5008554;28;20026;-92
2023/11/25 10:54:12;;;;;;;11.13;3.83;;;3.70;99.80;;;;;;5024543;28;20061;-90
2023/11/25 10:56:50;;;;;;;22.25;7.18;;;3.70;99.90;;;;;;5022707;28;20068;-92
2023/11/25 10:59:18;;;;;;;9.98;3.50;;;3.80;99.90;;;;;;5022037;28;20085;-92
2023/11/25 11:01:45;;;;;;;9.57;3.53;;;3.80;99.90;;;;;;5003263;28;20450;-93
2023/11/25 11:04:24;;;;;;;16.33;4.43;;;3.80;99.90;;;;;;5002346;28;20029;-91
2023/11/25 11:06:59;;;;;;;5.97;3.40;;;3.80;99.90;;;;;;5004049;28;20037;-91
2023/11/25 11:09:29;;;;;;;8.48;4.10;;;3.80;99.90;;;;;;5002997;28;20030;-90
2023/11/25 11:12:08;;;;;;;9.77;3.47;;;3.80;99.90;;;;;;5002383;28;20038;-91
2023/11/25 11:15:09;;;;;;;8.77;3.30;;;3.80;99.90;;;;;;5001827;28;20126;-92
2023/11/25 11:21:10;;;;;;;7.65;5.35;;;3.90;99.90;;;;;;5025146;28;20032;-90
2023/11/25 11:23:41;;;;;;;13.38;3.95;;;3.90;99.90;;;;;;5022936;28;20017;-91
2023/11/25 11:26:53;;;;;;;;;;;;;;;;;;;;;
2023/11/25 11:32:48;;;;;;;7.07;3.40;;;4.00;99.90;;;;;;4979488;28;20038;-91
2023/11/25 11:42:40;;;;;;;13.98;3.78;;;4.00;99.90;;;;;;5108161;22;20027;-94
2023/11/25 11:45:30;;;;;;;13.95;7.55;;;4.10;99.90;;;;;;5023047;28;20014;-94
2023/11/25 11:48:03;;;;;;;12.07;4.10;;;4.10;99.90;;;;;;5026962;28;20060;-93
2023/11/25 11:50:33;;;;;;;13.18;3.80;;;4.10;99.90;;;;;;5009719;28;20370;-93
2023/11/25 11:53:13;;;;;;;11.45;4.88;;;4.10;99.90;;;;;;5028379;28;20515;-92
2023/11/25 11:55:44;;;;;;;8.35;4.22;;;4.10;99.90;;;;;;5012265;28;20030;-94
2023/11/25 11:58:28;;;;;;;7.45;3.47;;;4.10;99.90;;;;;;4998937;28;20146;-94
2023/11/25 12:01:03;;;;;;;24.13;5.75;;;4.10;99.90;;;;;;5012270;28;20028;-93
2023/11/25 12:03:37;;;;;;;6.85;2.97;;;4.20;99.90;;;;;;5011059;28;20029;-93
2023/11/25 12:06:05;;;;;;;13.65;4.28;;;4.20;99.90;;;;;;5013318;28;20028;-92
2023/11/25 12:08:34;;;;;;;13.18;3.92;;;4.10;99.90;;;;;;5030723;28;20037;-92
2023/11/25 12:11:10;;;;;;;8.57;4.15;;;4.20;99.90;;;;;;5009335;28;20082;-93
2023/11/25 12:13:38;;;;;;;10.73;3.90;;;4.30;99.90;;;;;;4993424;28;20046;-93
2023/11/25 12:16:17;;;;;;;10.98;4.50;;;4.20;99.90;;;;;;4994543;28;20027;-93
2023/11/25 12:18:43;;;;;;;14.77;4.90;;;4.20;99.90;;;;;;5015747;28;20033;-92
2023/11/25 12:21:23;;;;;;;11.88;3.63;;;4.20;99.90;;;;;;4997515;28;20026;-93
2023/11/25 12:23:54;;;;;;;;;;;4.20;99.90;;;;;;5018334;28;20028;-93
2023/11/25 12:26:28;;;;;;;11.68;4.00;;;4.20;99.90;;;;;;5014748;28;19902;-93
2023/11/25 12:28:53;;;;;;;14.00;4.22;;;4.20;99.90;;;;;;5031844;28;20049;-94
2023/11/25 12:38:53;;;;;;;15.73;4.50;;;4.20;99.90;;;;;;4928630;28;20090;-92
2023/11/25 12:44:16;;;;;;;10.32;4.53;;;4.10;99.90;;;;;;5236908;22;20050;-90
2023/11/25 12:46:58;;;;;;;11.55;3.97;;;4.10;99.90;;;;;;5042555;28;20384;-92
2023/11/25 12:49:45;;;;;;;12.45;4.03;;;4.10;99.90;;;;;;5024165;28;20017;-92
2023/11/25 12:52:30;;;;;;;10.35;4.60;;;4.10;99.90;;;;;;4979215;28;20073;-91
2023/11/25 12:54:55;;;;;;;11.35;3.92;;;4.10;99.90;;;;;;5002740;28;20037;-90
2023/11/25 12:57:29;;;;;;;8.77;4.05;;;4.20;99.90;;;;;;5011655;28;20068;-93
2023/11/25 12:59:56;;;;;;;13.70;5.20;;;4.20;99.90;;;;;;5017154;28;20026;-91
2023/11/25 13:02:29;;;;;;;11.43;4.22;;;4.30;99.90;;;;;;4996694;28;20097;-92
2023/11/25 13:05:07;;;;;;;8.82;4.32;;;4.30;99.90;;;;;;4952598;28;20174;-90
2023/11/25 13:07:41;;;;;;;9.52;4.20;;;4.40;99.90;;;;;;4968438;28;20054;-92
2023/11/25 13:10:08;;;;;;;8.57;5.95;;;4.40;99.90;;;;;;5019506;28;20037;-91
2023/11/25 13:12:36;;;;;;;10.65;4.82;;;4.40;99.90;;;;;;5021943;28;20088;-90
2023/11/25 13:15:05;;;;;;;12.07;4.40;;;4.40;99.90;;;;;;5004709;28;20420;-91
2023/11/25 13:17:31;;;;;;;10.57;4.47;;;4.40;99.90;;;;;;5004729;28;20056;-88
2023/11/25 13:20:00;;;;;;;10.10;5.50;;;4.40;99.90;;;;;;5004279;28;20456;-90
2023/11/25 13:22:26;;;;;;;7.45;3.95;;;4.40;99.90;;;;;;4988677;28;20033;-91
2023/11/25 13:24:55;;;;;;;11.48;4.43;;;4.30;99.90;;;;;;5020222;28;20034;-90
2023/11/25 13:27:22;;;;;;;9.15;5.30;;;4.30;99.90;;;;;;5023483;28;20025;-90
2023/11/25 13:29:50;;;;;;;10.70;4.93;;;4.20;99.90;;;;;;5018254;28;20034;-92
2023/11/25 13:32:16;;;;;;;10.20;4.90;;;4.30;99.90;;;;;;5001684;28;20121;-91
2023/11/25 13:34:42;;;;;;;16.05;5.03;;;4.30;99.90;;;;;;5003212;28;20022;-91
2023/11/25 13:37:08;;;;;;;8.35;3.50;;;4.40;99.90;;;;;;5003879;28;20030;-91
2023/11/25 13:39:37;;;;;;;10.93;4.72;;;4.40;99.90;;;;;;4996633;28;20504;-89
2023/11/25 13:42:04;;;;;;;14.02;4.43;;;4.40;99.90;;;;;;4989146;28;20125;-91
2023/11/25 13:44:30;;;;;;;11.15;5.13;;;4.40;99.90;;;;;;5011232;28;20046;-90
2023/11/25 13:46:57;;;;;;;6.65;4.10;;;4.50;99.90;;;;;;4996877;28;20094;-91
2023/11/25 13:49:22;;;;;;;9.55;3.40;;;4.50;99.90;;;;;;5019533;28;20040;-90
2023/11/25 13:58:40;;;;;;;12.15;5.25;;;4.70;99.90;;;;;;4979697;28;20046;-92
2023/11/25 14:01:07;;;;;;;11.30;3.88;;;4.80;99.90;;;;;;4981767;28;20023;-90
2023/11/25 14:07:35;;;;;;;7.05;3.17;;;4.80;99.90;;;;;;4981312;28;20026;-91
2023/11/25 14:16:55;;;;;;;5.85;3.53;;;4.70;99.90;;;;;;4928466;28;20117;-91
2023/11/25 14:19:27;;;;;;;7.28;3.63;;;4.70;99.90;;;;;;5006096;28;20042;-91
2023/11/25 14:29:37;;;;;;;6.03;2.60;;;4.60;99.90;;;;;;5004525;28;20026;-90
2023/11/25 14:32:27;;;;;;;4.40;2.72;;;4.60;99.90;;;;;;4987297;28;20046;-92
2023/11/25 14:35:27;;;;;;;6.97;3.17;;;4.60;99.90;;;;;;5018365;28;20114;-92
2023/11/25 14:37:57;;;;;;;9.75;4.25;;;4.50;99.90;;;;;;5001852;28;20118;-92
2023/11/25 14:43:49;;;;;;;4.43;2.38;;;4.40;99.90;;;;;;5003026;28;20097;-92